Time;durP1;ratioP1;P1;durP2;ratioP2;P2;SDS_P1;SDS_P2;PMS_P1;PMS_P2;Temp;Humidity;BMP_temperature;BMP_pressure;BME280_temperature;BME280_humidity;BME280_pressure;Samples;Min_cycle;Max_cycle;Signal;HPM_P1;HPM_P2
2022/05/09 00:00:06;;;;;;;7.00;2.27;;;;;;;5.91;100.00;102466.16;4984809;28;20109;-71
2022/05/09 00:02:37;;;;;;;11.98;3.78;;;;;;;5.90;100.00;102464.44;4985253;28;20029;-71
2022/05/09 00:05:04;;;;;;;8.27;2.92;;;;;;;5.88;100.00;102470.78;4985568;28;20030;-70
2022/05/09 00:07:29;;;;;;;7.90;2.30;;;;;;;5.79;100.00;102458.91;4954037;28;20345;-71
2022/05/09 00:09:55;;;;;;;5.83;2.30;;;;;;;5.77;100.00;102462.59;4983439;28;20046;-71
2022/05/09 00:12:20;;;;;;;8.40;2.43;;;;;;;5.68;100.00;102453.38;4985080;28;20272;-71
2022/05/09 00:14:46;;;;;;;10.13;2.40;;;;;;;5.69;100.00;102461.25;4982595;28;20047;-71
2022/05/09 00:17:11;;;;;;;13.80;3.80;;;;;;;5.74;100.00;102489.28;4970678;28;20084;-71
2022/05/09 00:19:37;;;;;;;4.27;2.43;;;;;;;5.63;100.00;102481.94;4968895;28;20277;-71
2022/05/09 00:22:02;;;;;;;4.97;2.50;;;;;;;5.59;100.00;102475.97;4967528;28;20640;-71
2022/05/09 00:24:29;;;;;;;15.30;3.33;;;;;;;5.60;100.00;102476.84;4985273;28;20037;-71
2022/05/09 00:26:55;;;;;;;6.22;2.85;;;;;;;5.61;100.00;102483.84;4972758;28;20026;-71
2022/05/09 00:29:21;;;;;;;5.82;2.30;;;;;;;5.63;100.00;102492.56;4968903;28;20190;-70
2022/05/09 00:31:48;;;;;;;11.23;3.13;;;;;;;5.49;100.00;102482.72;4983458;28;20027;-71
2022/05/09 00:34:18;;;;;;;8.48;3.53;;;;;;;5.45;100.00;102468.78;4969991;28;20092;-72
2022/05/09 00:36:45;;;;;;;7.80;2.65;;;;;;;5.44;100.00;102472.41;4966800;28;20038;-71
2022/05/09 00:39:11;;;;;;;8.73;3.42;;;;;;;5.42;100.00;102474.28;4984760;28;20042;-71
2022/05/09 00:41:37;;;;;;;8.10;2.72;;;;;;;5.43;100.00;102478.66;4968566;28;20053;-72
2022/05/09 00:44:10;;;;;;;7.43;2.38;;;;;;;5.45;100.00;102478.53;4987645;28;20128;-71
2022/05/09 00:46:37;;;;;;;11.98;3.78;;;;;;;5.43;100.00;102472.47;4983008;28;20822;-71
2022/05/09 00:49:21;;;;;;;8.82;3.08;;;;;;;5.41;100.00;102469.09;4969872;28;20109;-71
2022/05/09 00:51:56;;;;;;;7.60;3.25;;;;;;;5.38;100.00;102464.78;4987035;28;20101;-71
2022/05/09 00:54:25;;;;;;;6.22;3.00;;;;;;;5.35;100.00;102470.25;4969941;28;20129;-71
2022/05/09 00:56:56;;;;;;;5.97;2.63;;;;;;;5.32;100.00;102464.31;4985731;28;20211;-71
2022/05/09 00:59:23;;;;;;;9.60;3.58;;;;;;;5.29;100.00;102462.66;4969609;28;20385;-71
2022/05/09 01:01:49;;;;;;;9.30;2.58;;;;;;;5.23;100.00;102457.72;4984211;28;20361;-71
2022/05/09 01:04:18;;;;;;;7.13;2.47;;;;;;;5.23;100.00;102468.31;4969899;28;20484;-71
2022/05/09 01:06:44;;;;;;;9.98;3.50;;;;;;;5.20;100.00;102464.03;4984282;28;20060;-71
2022/05/09 01:09:12;;;;;;;8.75;2.60;;;;;;;5.22;100.00;102467.47;4969483;28;20495;-71
2022/05/09 01:11:44;;;;;;;9.40;3.40;;;;;;;5.24;100.00;102475.31;4984095;28;20094;-70
2022/05/09 01:14:13;;;;;;;7.47;3.15;;;;;;;5.19;100.00;102482.66;4985652;28;20046;-71
2022/05/09 01:16:39;;;;;;;4.05;2.50;;;;;;;5.12;100.00;102479.47;4967884;28;20062;-71
2022/05/09 01:19:14;;;;;;;6.47;3.17;;;;;;;5.13;100.00;102489.16;4985422;28;20036;-71
2022/05/09 01:21:40;;;;;;;8.82;3.08;;;;;;;5.12;100.00;102486.59;4985005;28;20126;-71
2022/05/09 01:24:17;;;;;;;8.82;3.15;;;;;;;5.07;100.00;102484.19;4985398;28;20018;-70
2022/05/09 01:26:42;;;;;;;7.15;3.00;;;;;;;5.12;100.00;102486.59;4983975;28;20057;-71
2022/05/09 01:29:37;;;;;;;5.47;2.70;;;;;;;5.08;100.00;102480.63;4967973;28;20729;-71
2022/05/09 01:32:07;;;;;;;6.40;3.03;;;;;;;5.03;100.00;102483.50;4983764;28;20034;-70
2022/05/09 01:34:34;;;;;;;3.70;2.30;;;;;;;5.02;100.00;102476.50;4968737;28;20484;-71
2022/05/09 01:37:04;;;;;;;4.28;2.40;;;;;;;5.05;100.00;102484.25;4978423;28;20142;-71
2022/05/09 01:39:31;;;;;;;8.98;3.20;;;;;;;5.00;100.00;102488.97;4967214;28;20487;-70
2022/05/09 01:41:56;;;;;;;6.03;2.53;;;;;;;4.95;100.00;102485.72;4984577;28;20070;-71
2022/05/09 01:44:23;;;;;;;8.65;3.38;;;;;;;4.95;100.00;102484.88;4963790;28;20561;-71
2022/05/09 01:49:35;;;;;;;5.78;2.70;;;;;;;4.95;100.00;102496.31;4984822;28;20034;-71
2022/05/09 01:52:04;;;;;;;4.82;2.83;;;;;;;4.88;100.00;102489.63;4979333;28;20015;-71
2022/05/09 01:54:30;;;;;;;12.55;3.63;;;;;;;4.88;100.00;102486.13;4984748;28;20092;-71
2022/05/09 01:56:56;;;;;;;7.18;3.15;;;;;;;4.77;100.00;102487.53;4982260;28;20031;-71
2022/05/09 01:59:22;;;;;;;13.18;4.00;;;;;;;4.72;100.00;102480.81;4965716;28;20042;-71
2022/05/09 02:01:52;;;;;;;7.55;3.60;;;;;;;4.69;100.00;102478.34;4981606;28;20058;-71
2022/05/09 02:04:23;;;;;;;6.10;3.08;;;;;;;4.69;100.00;102473.03;4983052;28;20077;-71
2022/05/09 02:06:48;;;;;;;6.55;3.53;;;;;;;4.67;100.00;102469.63;4981736;28;20039;-71
2022/05/09 02:09:14;;;;;;;10.03;3.30;;;;;;;4.72;100.00;102478.16;4983043;28;20028;-71
2022/05/09 02:11:39;;;;;;;5.83;2.80;;;;;;;4.74;100.00;102481.59;4964002;28;20076;-71
2022/05/09 02:14:05;;;;;;;8.17;2.80;;;;;;;4.77;100.00;102484.91;4965586;28;20269;-71
2022/05/09 02:16:31;;;;;;;8.55;3.30;;;;;;;4.77;100.00;102492.00;4967150;28;20255;-71
2022/05/09 02:18:56;;;;;;;11.57;3.33;;;;;;;4.79;100.00;102495.41;4982320;28;20040;-71
2022/05/09 02:21:22;;;;;;;10.83;3.57;;;;;;;4.74;100.00;102500.94;4967884;28;20092;-71
2022/05/09 02:23:47;;;;;;;5.97;2.83;;;;;;;4.76;100.00;102501.72;4982357;28;20068;-71
2022/05/09 02:26:13;;;;;;;11.40;3.37;;;;;;;4.69;100.00;102497.69;4968103;28;20464;-71
2022/05/09 02:28:39;;;;;;;5.73;2.40;;;;;;;4.65;100.00;102496.16;4950505;28;20530;-71
2022/05/09 02:31:04;;;;;;;6.78;2.08;;;;;;;4.57;100.00;102485.97;4982893;28;20037;-71
2022/05/09 02:33:29;;;;;;;7.97;3.70;;;;;;;4.56;100.00;102492.19;4967424;28;20058;-71
2022/05/09 02:35:55;;;;;;;7.07;2.67;;;;;;;4.54;100.00;102483.50;4980991;28;20038;-71
2022/05/09 02:38:23;;;;;;;3.60;2.10;;;;;;;4.50;100.00;102489.88;4982608;28;20062;-71
2022/05/09 02:40:49;;;;;;;7.75;3.33;;;;;;;4.46;100.00;102475.09;4981683;28;20077;-71
2022/05/09 02:43:14;;;;;;;13.03;2.87;;;;;;;4.46;100.00;102472.47;4982505;28;20058;-71
2022/05/09 02:45:40;;;;;;;6.20;2.50;;;;;;;4.48;100.00;102475.03;4980773;28;20034;-71
2022/05/09 02:48:07;;;;;;;7.47;2.72;;;;;;;4.40;100.00;102462.19;4964908;28;20030;-71
2022/05/09 02:50:32;;;;;;;6.18;2.95;;;;;;;4.35;100.00;102453.66;4981522;28;20089;-71
2022/05/09 02:52:57;;;;;;;5.03;2.53;;;;;;;4.33;100.00;102456.41;4980696;28;20022;-71
2022/05/09 02:55:23;;;;;;;7.57;3.10;;;;;;;4.35;100.00;102453.66;4982407;28;20399;-71
2022/05/09 02:57:49;;;;;;;9.50;3.90;;;;;;;4.29;100.00;102454.00;4963846;28;20502;-71
2022/05/09 03:00:24;;;;;;;7.80;3.17;;;;;;;4.28;100.00;102452.25;4982251;28;20064;-71
2022/05/09 03:05:35;;;;;;;7.93;3.30;;;;;;;4.23;100.00;102456.00;4981701;28;20045;-71
2022/05/09 03:08:01;;;;;;;8.52;3.50;;;;;;;4.21;100.00;102455.25;4977072;28;20105;-70
2022/05/09 03:10:28;;;;;;;6.82;2.88;;;;;;;4.19;100.00;102451.81;4964692;28;20561;-71
2022/05/09 03:12:59;;;;;;;8.52;3.05;;;;;;;4.27;100.00;102466.44;4981869;28;20041;-71
2022/05/09 03:15:28;;;;;;;6.60;3.42;;;;;;;4.15;100.00;102458.19;4982445;28;20174;-71
2022/05/09 03:17:54;;;;;;;7.72;2.50;;;;;;;4.14;100.00;102460.91;4985770;28;20476;-71
2022/05/09 03:20:21;;;;;;;5.45;2.45;;;;;;;4.12;100.00;102461.00;4967438;28;20034;-71
2022/05/09 03:22:48;;;;;;;7.40;2.70;;;;;;;4.11;100.00;102461.06;4980896;28;20030;-71
2022/05/09 03:25:13;;;;;;;6.63;2.80;;;;;;;4.05;100.00;102462.25;4964982;28;20273;-71
2022/05/09 03:27:39;;;;;;;5.80;3.20;;;;;;;4.05;100.00;102454.31;4966260;28;20085;-71
2022/05/09 03:30:06;;;;;;;6.33;3.20;;;;;;;4.11;100.00;102453.97;4982224;28;20040;-71
2022/05/09 03:32:32;;;;;;;8.02;2.70;;;;;;;4.04;100.00;102447.31;4966094;28;20039;-71
2022/05/09 03:34:58;;;;;;;8.93;2.63;;;;;;;4.04;100.00;102465.81;4983305;28;20385;-71
2022/05/09 03:37:23;;;;;;;6.43;2.67;;;;;;;4.05;100.00;102464.00;4985924;28;20022;-71
2022/05/09 03:39:48;;;;;;;9.33;3.30;;;;;;;4.06;100.00;102456.03;4984282;28;20578;-71
2022/05/09 03:42:14;;;;;;;7.13;3.43;;;;;;;4.11;100.00;102461.06;4970468;28;20571;-71
2022/05/09 03:44:39;;;;;;;6.97;2.97;;;;;;;4.11;100.00;102456.63;4983665;28;20037;-71
2022/05/09 03:47:05;;;;;;;6.40;3.00;;;;;;;4.13;100.00;102465.34;4985383;28;20049;-71
2022/05/09 03:49:31;;;;;;;7.60;2.70;;;;;;;4.09;100.00;102477.00;4970061;28;20407;-71
2022/05/09 03:51:56;;;;;;;3.40;2.37;;;;;;;4.12;100.00;102468.94;4985140;28;20384;-71
2022/05/09 03:54:23;;;;;;;5.82;2.70;;;;;;;4.15;100.00;102463.47;4965858;28;20404;-71
2022/05/09 03:56:48;;;;;;;4.93;3.00;;;;;;;4.16;100.00;102474.91;4984241;28;20436;-71
2022/05/09 03:59:13;;;;;;;6.60;2.97;;;;;;;4.18;100.00;102476.53;4985335;28;20041;-71
2022/05/09 04:01:39;;;;;;;7.47;2.90;;;;;;;4.26;100.00;102485.84;4966230;28;20492;-71
2022/05/09 04:04:05;;;;;;;11.33;3.60;;;;;;;4.27;100.00;102490.22;4984902;28;20056;-71
2022/05/09 04:06:30;;;;;;;9.15;3.13;;;;;;;4.30;100.00;102479.47;4985701;28;20038;-71
2022/05/09 04:08:57;;;;;;;9.55;3.28;;;;;;;4.41;100.00;102485.06;4983009;28;20041;-71
2022/05/09 04:11:23;;;;;;;19.23;8.33;;;;;;;4.51;100.00;102491.56;4953491;28;20026;-71
2022/05/09 04:13:49;;;;;;;16.98;7.35;;;;;;;4.54;100.00;102483.50;4983943;28;20098;-71
2022/05/09 04:19:00;;;;;;;7.90;4.10;;;;;;;4.72;100.00;102478.16;4979503;28;20150;-71
2022/05/09 04:21:26;;;;;;;15.77;5.23;;;;;;;4.82;100.00;102485.53;4984670;28;20639;-71
2022/05/09 04:23:56;;;;;;;6.97;3.35;;;;;;;4.96;100.00;102486.56;4984023;28;20071;-71
2022/05/09 04:26:23;;;;;;;9.57;3.40;;;;;;;5.12;100.00;102489.22;4985135;28;20034;-71
2022/05/09 04:28:49;;;;;;;8.90;4.18;;;;;;;5.25;100.00;102492.91;4983550;28;20035;-71
2022/05/09 04:31:15;;;;;;;11.70;3.35;;;;;;;5.56;100.00;102500.00;4969955;28;20033;-71
2022/05/09 04:33:42;;;;;;;10.85;3.60;;;;;;;5.69;100.00;102508.13;4983437;28;20181;-72
2022/05/09 04:36:07;;;;;;;15.00;6.22;;;;;;;5.91;100.00;102511.22;4984752;28;20030;-71
2022/05/09 04:38:35;;;;;;;14.23;4.72;;;;;;;6.15;100.00;102515.22;4983740;28;20433;-71
2022/05/09 04:41:02;;;;;;;10.20;6.72;;;;;;;6.48;100.00;102517.66;4979385;28;20061;-71
2022/05/09 04:43:31;;;;;;;16.63;5.45;;;;;;;6.75;100.00;102521.28;4983975;28;20038;-71
2022/05/09 04:46:00;;;;;;;12.25;4.05;;;;;;;6.91;100.00;102521.19;4985386;28;20023;-71
2022/05/09 04:48:27;;;;;;;12.65;4.15;;;;;;;7.09;100.00;102510.34;4969999;28;20048;-71
2022/05/09 04:50:53;;;;;;;17.30;5.00;;;;;;;7.32;100.00;102514.22;4983470;28;20022;-71
2022/05/09 04:53:18;;;;;;;13.70;3.78;;;;;;;7.45;100.00;102496.53;4954346;28;20551;-71
2022/05/09 04:55:44;;;;;;;8.97;3.73;;;;;;;7.65;100.00;102483.75;4966167;28;20030;-71
2022/05/09 04:58:15;;;;;;;6.95;3.92;;;;;;;7.73;100.00;102473.47;4984735;28;20038;-71
2022/05/09 05:00:41;;;;;;;13.25;3.65;;;;;;;7.87;100.00;102462.75;4969183;28;20045;-71
2022/05/09 05:03:06;;;;;;;13.82;5.10;;;;;;;8.03;100.00;102452.78;4970733;28;20022;-71
2022/05/09 05:05:32;;;;;;;11.75;4.15;;;;;;;8.07;100.00;102441.94;4985051;28;20042;-71
2022/05/09 05:07:58;;;;;;;14.33;3.70;;;;;;;8.34;100.00;102442.69;4985360;28;20057;-72
2022/05/09 05:10:24;;;;;;;9.52;3.40;;;;;;;8.63;100.00;102434.50;4985960;28;20133;-71
2022/05/09 05:12:49;;;;;;;7.83;3.60;;;;;;;8.94;100.00;102413.66;4982999;28;20114;-72
2022/05/09 05:15:15;;;;;;;16.90;3.93;;;;;;;9.41;100.00;102388.00;4985482;28;20030;-71
2022/05/09 05:17:41;;;;;;;11.60;3.17;;;;;;;10.09;100.00;102359.69;4984396;28;20488;-71
2022/05/09 05:20:10;;;;;;;9.00;2.97;;;;;;;11.10;100.00;102335.56;4986964;28;20034;-71
2022/05/09 05:22:37;;;;;;;8.25;2.92;;;;;;;11.57;100.00;102233.56;4985889;28;20085;-71
2022/05/09 05:25:04;;;;;;;13.05;3.33;;;;;;;11.07;96.30;102182.59;4984154;28;20041;-71
2022/05/09 05:27:29;;;;;;;;;;;;;;;11.66;91.21;102176.59;4985676;28;20126;-71
2022/05/09 05:29:57;;;;;;;;;;;;;;;12.33;86.20;102150.16;4984033;28;20000;-71
2022/05/09 05:32:28;;;;;;;5.70;2.88;;;;;;;13.76;79.67;102134.91;4964015;28;19910;-72
2022/05/09 05:34:54;;;;;;;9.77;3.58;;;;;;;13.80;72.90;101985.97;4982793;28;20764;-72
2022/05/09 05:37:20;;;;;;;10.75;2.80;;;;;;;13.73;71.00;101992.94;4984184;28;20027;-72
2022/05/09 05:39:47;;;;;;;10.25;2.80;;;;;;;13.70;68.28;101939.59;4983126;28;20042;-72
2022/05/09 05:42:12;;;;;;;;;;;;;;;12.71;70.57;101976.97;4969328;28;20041;-72
2022/05/09 05:44:38;;;;;;;;;;;;;;;13.96;69.97;102090.00;4983028;28;19914;-72
2022/05/09 05:47:08;;;;;;;13.83;3.07;;;;;;;13.60;68.42;102013.94;4984072;28;19910;-72
2022/05/09 05:49:35;;;;;;;8.60;3.22;;;;;;;13.85;69.08;102072.25;4983978;28;20034;-72
2022/05/09 05:52:03;;;;;;;10.35;2.78;;;;;;;13.69;67.12;102003.13;4982411;28;20029;-72
2022/05/09 05:54:30;;;;;;;10.07;2.42;;;;;;;13.47;67.17;101987.50;4961530;23;20058;-82
2022/05/09 05:56:56;;;;;;;9.82;2.80;;;;;;;14.12;68.05;102110.81;4936336;29;20027;-82
2022/05/09 05:59:25;;;;;;;11.43;2.78;;;;;;;14.33;66.91;102107.81;4968396;28;20046;-84
2022/05/09 06:01:54;;;;;;;13.45;2.70;;;;;;;14.83;66.04;102133.28;4950177;28;20023;-83
2022/05/09 06:04:21;;;;;;;11.43;4.07;;;;;;;15.19;63.00;102043.41;4947376;28;20035;-85
2022/05/09 06:06:48;;;;;;;11.80;3.00;;;;;;;14.78;63.46;102028.91;4959117;28;20126;-84
2022/05/09 06:09:14;;;;;;;8.68;2.30;;;;;;;14.09;63.13;101929.34;4950847;29;20042;-82
2022/05/09 06:11:40;;;;;;;8.37;2.43;;;;;;;14.46;65.71;102093.97;4934843;29;20034;-83
2022/05/09 06:14:10;;;;;;;6.97;2.17;;;;;;;14.76;64.03;102077.44;4930987;29;20087;-83
2022/05/09 06:16:36;;;;;;;9.60;2.42;;;;;;;14.93;63.76;102074.84;4931931;29;20043;-83
2022/05/09 06:19:04;;;;;;;9.77;2.45;;;;;;;15.68;62.83;102133.41;4934903;29;20019;-84
2022/05/09 06:21:33;;;;;;;12.35;2.75;;;;;;;15.93;60.55;102023.97;4952179;28;20296;-84
2022/05/09 06:24:00;;;;;;;11.02;3.10;;;;;;;15.33;62.45;102054.53;4950780;28;20015;-84
2022/05/09 06:26:25;;;;;;;;;;;;;;;14.62;65.66;102114.81;4935090;29;20049;-85
2022/05/09 06:28:52;;;;;;;9.68;2.53;;;;;;;14.49;65.71;102091.84;4934791;29;19910;-84
2022/05/09 06:31:18;;;;;;;9.93;3.50;;;;;;;13.81;68.74;102135.28;4934803;29;20031;-83
2022/05/09 06:33:43;;;;;;;7.20;3.20;;;;;;;15.18;66.71;102235.41;4934562;29;20023;-83
2022/05/09 06:36:09;;;;;;;10.23;3.17;;;;;;;14.93;65.94;102147.47;4951080;29;20047;-82
2022/05/09 06:38:34;;;;;;;11.40;2.90;;;;;;;14.45;65.39;102054.69;4935499;29;20051;-82
2022/05/09 06:41:01;;;;;;;7.80;2.30;;;;;;;14.44;68.07;102168.53;4934901;29;20122;-83
2022/05/09 06:43:28;;;;;;;5.32;2.10;;;;;;;14.22;67.71;102133.06;4935745;29;20027;-82
2022/05/09 06:45:54;;;;;;;7.65;2.75;;;;;;;14.31;69.12;102199.31;4951017;29;20508;-82
2022/05/09 06:48:20;;;;;;;4.75;2.05;;;;;;;13.07;72.28;102153.06;4951155;29;20031;-82
2022/05/09 06:50:45;;;;;;;12.82;2.78;;;;;;;14.24;73.48;102321.78;4951163;29;20055;-82
2022/05/09 06:53:12;;;;;;;12.05;3.15;;;;;;;14.28;68.27;102134.28;4934985;28;20023;-82
2022/05/09 06:55:38;;;;;;;6.45;2.50;;;;;;;14.27;71.71;102265.06;4951004;29;20039;-82
2022/05/09 06:58:12;;;;;;;13.00;3.40;;;;;;;14.45;69.73;102221.28;4935266;29;20395;-82
2022/05/09 07:00:38;;;;;;;8.65;2.40;;;;;;;13.98;69.87;102157.81;4935389;29;20043;-81
2022/05/09 07:03:04;;;;;;;9.40;3.90;;;;;;;14.67;68.88;102218.16;4935117;28;20025;-82
2022/05/09 07:05:30;;;;;;;9.48;2.22;;;;;;;13.75;71.19;102202.16;4951473;29;20110;-82
2022/05/09 07:07:56;;;;;;;8.52;2.05;;;;;;;13.80;71.76;102215.97;4951165;28;20030;-82
2022/05/09 07:10:22;;;;;;;5.63;2.03;;;;;;;14.44;71.63;102286.75;4955965;28;20039;-82
2022/05/09 07:12:53;;;;;;;6.13;2.15;;;;;;;14.69;67.60;102170.47;4970516;28;20362;-81
2022/05/09 07:15:22;;;;;;;7.07;2.63;;;;;;;14.42;69.18;102192.88;4938552;29;20070;-82
2022/05/09 07:17:52;;;;;;;8.02;3.20;;;;;;;14.17;69.43;102181.03;4955342;29;20053;-82
2022/05/09 07:20:20;;;;;;;8.18;2.05;;;;;;;13.54;70.75;102151.41;4938499;29;20031;-81
2022/05/09 07:22:47;;;;;;;5.40;2.08;;;;;;;13.07;72.89;102171.84;4938733;29;20117;-82
2022/05/09 07:25:14;;;;;;;6.82;2.92;;;;;;;13.94;72.73;102274.56;4939282;29;20449;-82
2022/05/09 07:27:42;;;;;;;8.90;1.70;;;;;;;14.92;71.20;102307.13;4954813;29;20066;-82
2022/05/09 07:30:13;;;;;;;7.50;2.20;;;;;;;15.23;67.88;102236.78;4954656;29;20031;-81
2022/05/09 07:32:39;;;;;;;10.98;2.35;;;;;;;15.07;66.16;102130.75;4953945;29;20039;-82
2022/05/09 07:35:07;;;;;;;9.48;2.55;;;;;;;15.52;67.84;102256.16;4954873;28;20046;-82
2022/05/09 07:37:32;;;;;;;5.93;1.75;;;;;;;15.66;64.26;102135.41;4939259;29;20519;-81
2022/05/09 07:39:58;;;;;;;7.00;2.00;;;;;;;15.66;64.50;102138.13;4955088;29;20015;-81
2022/05/09 07:42:23;;;;;;;6.23;2.53;;;;;;;15.32;64.38;102069.84;4939318;29;20874;-81
2022/05/09 07:44:52;;;;;;;7.30;2.00;;;;;;;14.53;68.65;102162.22;4939388;29;20035;-82
2022/05/09 07:47:18;;;;;;;8.90;2.30;;;;;;;14.90;67.88;102204.25;4939086;29;20046;-82
2022/05/09 07:49:43;;;;;;;8.88;1.90;;;;;;;15.80;66.33;102251.50;4954762;29;20023;-82
2022/05/09 07:52:09;;;;;;;5.90;1.83;;;;;;;15.25;63.92;102071.50;4939450;29;20035;-82
2022/05/09 07:54:35;;;;;;;11.18;2.45;;;;;;;15.58;64.16;102155.91;4939171;29;20037;-82
2022/05/09 07:57:00;;;;;;;5.97;2.03;;;;;;;15.61;62.95;102093.66;4939254;29;20039;-82
2022/05/09 07:59:26;;;;;;;6.63;1.83;;;;;;;14.44;66.61;102104.88;4955464;29;20113;-82
2022/05/09 08:01:52;;;;;;;4.87;1.83;;;;;;;15.22;68.53;102279.00;4939246;29;20069;-82
2022/05/09 08:04:18;;;;;;;9.15;2.20;;;;;;;15.46;67.35;102239.81;4939037;29;20456;-82
2022/05/09 08:06:43;;;;;;;9.30;2.37;;;;;;;15.85;66.50;102261.78;4938693;29;20046;-82
2022/05/09 08:09:08;;;;;;;11.03;2.40;;;;;;;14.75;66.35;102104.50;4938975;29;20275;-81
2022/05/09 08:11:34;;;;;;;7.73;2.23;;;;;;;15.28;68.69;102255.97;4939495;29;20027;-82
2022/05/09 08:13:59;;;;;;;4.27;1.90;;;;;;;15.32;68.36;102246.59;4935495;29;20031;-83
2022/05/09 08:16:27;;;;;;;9.47;2.50;;;;;;;15.98;65.86;102231.69;4950559;29;20043;-82
2022/05/09 08:18:52;;;;;;;10.27;2.28;;;;;;;15.68;64.34;102134.25;4955383;29;20055;-82
2022/05/09 08:21:18;;;;;;;4.05;1.75;;;;;;;16.08;64.77;102202.75;4955147;28;20043;-82
2022/05/09 08:23:44;;;;;;;5.13;1.90;;;;;;;15.76;62.19;102050.03;4937919;29;20023;-82
2022/05/09 08:26:11;;;;;;;9.63;2.05;;;;;;;16.00;61.97;102095.84;4936278;29;20054;-82
2022/05/09 08:28:37;;;;;;;5.90;2.17;;;;;;;16.33;60.78;102093.19;4954169;29;20063;-82
2022/05/09 08:31:02;;;;;;;7.07;2.20;;;;;;;16.37;58.92;102016.38;4954716;29;20476;-82
2022/05/09 08:33:29;;;;;;;11.57;2.35;;;;;;;16.60;59.36;102077.66;4954872;28;20023;-82
2022/05/09 08:35:55;;;;;;;7.45;2.28;;;;;;;15.63;58.09;101872.78;4955792;28;20039;-83
2022/05/09 08:38:21;;;;;;;10.35;3.35;;;;;;;15.96;59.41;102034.38;4953812;29;20407;-82
2022/05/09 08:41:07;;;;;;;6.55;1.92;;;;;;;16.56;57.98;102052.09;4954790;29;20039;-82
2022/05/09 08:44:06;;;;;;;7.68;2.50;;;;;;;17.34;55.69;102035.19;4956015;28;20031;-82
2022/05/09 08:47:00;;;;;;;8.90;2.63;;;;;;;18.44;54.67;102105.25;4956235;29;20066;-82
2022/05/09 08:49:41;;;;;;;5.72;2.25;;;;;;;18.74;52.02;102013.38;4955465;29;20098;-83
2022/05/09 08:52:32;;;;;;;6.45;1.95;;;;;;;17.40;50.46;101713.28;4956670;28;20034;-82
2022/05/09 08:54:57;;;;;;;6.68;1.70;;;;;;;17.82;50.56;101822.56;4952738;28;20035;-82
2022/05/09 08:57:26;;;;;;;7.03;2.63;;;;;;;17.97;50.25;101798.28;4952124;29;20035;-82
2022/05/09 09:00:03;;;;;;;6.63;2.20;;;;;;;16.90;52.61;101782.13;4951638;29;20039;-82
2022/05/09 09:02:54;;;;;;;18.95;3.38;;;;;;;18.90;51.50;102036.75;4951665;29;20038;-82
2022/05/09 09:05:23;;;;;;;5.35;2.00;;;;;;;19.48;48.33;101898.72;4935793;29;20035;-82
2022/05/09 09:08:20;;;;;;;6.50;2.42;;;;;;;19.08;47.02;101773.81;4951687;29;20027;-83
2022/05/09 09:11:00;;;;;;;9.27;2.22;;;;;;;17.17;48.32;101583.78;4951483;29;20126;-82
2022/05/09 09:13:58;;;;;;;6.90;2.00;;;;;;;18.67;46.22;101739.25;4951764;28;20085;-82
2022/05/09 09:16:29;;;;;;;9.32;3.72;;;;;;;17.44;47.58;101643.53;4951761;29;20043;-81
2022/05/09 09:19:08;;;;;;;10.77;2.28;;;;;;;17.94;47.43;101728.41;4951090;29;20078;-82
2022/05/09 09:21:52;;;;;;;7.68;2.10;;;;;;;16.87;44.80;101426.50;4952617;28;20510;-81
2022/05/09 09:24:43;;;;;;;6.10;3.25;;;;;;;16.87;44.36;101427.34;4951208;28;20037;-81
2022/05/09 09:27:23;;;;;;;5.88;2.00;;;;;;;16.67;46.14;101548.38;4951441;29;20046;-81
2022/05/09 09:29:55;;;;;;;11.15;2.40;;;;;;;17.37;45.36;101619.19;4933842;29;20111;-82
2022/05/09 09:32:21;;;;;;;8.00;2.40;;;;;;;18.27;43.90;101703.66;4934453;29;20689;-82
2022/05/09 09:34:51;;;;;;;7.25;2.67;;;;;;;18.17;42.85;101557.19;4951012;28;20484;-82
2022/05/09 09:37:31;;;;;;;5.57;3.10;;;;;;;18.07;43.80;101601.56;4950889;29;20039;-82
2022/05/09 09:39:56;;;;;;;9.20;2.83;;;;;;;18.85;43.00;101639.59;4950743;29;20031;-82
2022/05/09 09:42:22;;;;;;;5.27;2.20;;;;;;;19.72;41.33;101700.59;4935039;29;20030;-82
2022/05/09 09:44:48;;;;;;;8.53;2.20;;;;;;;20.00;41.28;101730.34;4952167;28;20031;-82
2022/05/09 09:47:20;;;;;;;7.97;2.28;;;;;;;20.05;42.31;101792.09;4967144;28;20038;-82
2022/05/09 09:50:09;;;;;;;5.68;2.38;;;;;;;20.42;41.20;101754.72;4950695;29;20184;-82
2022/05/09 09:52:47;;;;;;;6.55;2.20;;;;;;;20.65;41.41;101711.84;4950864;29;20180;-83
2022/05/09 09:55:23;;;;;;;5.25;2.10;;;;;;;18.90;42.86;101555.97;4952082;28;20027;-82
2022/05/09 09:57:49;;;;;;;12.02;2.80;;;;;;;20.00;43.90;101846.06;4967350;28;20054;-82
2022/05/09 10:00:19;;;;;;;11.57;3.57;;;;;;;21.11;42.71;101904.84;4933307;29;20404;-83
2022/05/09 10:02:47;;;;;;;9.82;3.28;;;;;;;20.15;44.02;101816.94;4956692;28;20027;-83
2022/05/09 10:05:15;;;;;;;6.75;2.83;;;;;;;19.95;43.62;101750.97;4952871;28;20026;-83
2022/05/09 10:07:44;;;;;;;8.57;2.70;;;;;;;21.06;42.26;101843.84;4937207;29;20050;-82
2022/05/09 10:10:19;;;;;;;10.18;3.38;;;;;;;20.37;43.24;101757.19;4952207;29;20023;-83
2022/05/09 10:12:48;;;;;;;11.05;3.10;;;;;;;19.71;44.04;101679.94;4936400;29;20050;-82
2022/05/09 10:15:28;;;;;;;9.10;3.20;;;;;;;19.25;44.24;101626.34;4933676;29;20296;-82
2022/05/09 10:17:54;;;;;;;11.30;3.38;;;;;;;18.29;46.64;101629.47;4952401;29;20046;-83
2022/05/09 10:20:41;;;;;;;9.32;2.75;;;;;;;19.77;47.02;101922.19;4952428;29;20042;-82
2022/05/09 10:26:25;;;;;;;12.25;3.40;;;;;;;20.37;45.51;101887.34;4962416;28;20043;-82
2022/05/09 10:28:59;;;;;;;8.95;3.53;;;;;;;18.71;47.07;101686.47;4967072;28;20043;-82
2022/05/09 10:31:35;;;;;;;8.05;3.22;;;;;;;19.89;46.12;101816.81;4952491;29;20031;-83
2022/05/09 10:34:08;;;;;;;10.98;3.58;;;;;;;20.95;45.85;102001.88;4945540;28;20046;-83
2022/05/09 10:36:33;;;;;;;13.77;3.90;;;;;;;19.81;46.54;101834.06;4954254;28;20190;-83
2022/05/09 10:39:07;;;;;;;9.37;3.60;;;;;;;21.55;44.38;102004.03;4933842;29;20481;-84
2022/05/09 10:41:55;;;;;;;8.95;2.97;;;;;;;21.69;43.74;101940.53;4949358;29;20046;-82
2022/05/09 10:44:53;;;;;;;10.43;2.83;;;;;;;21.29;43.50;101840.75;4938278;29;20062;-81
2022/05/09 10:47:40;;;;;;;5.90;2.53;;;;;;;22.40;41.18;101862.88;4944297;29;20222;-80
2022/05/09 10:50:19;;;;;;;10.93;4.05;;;;;;;20.91;43.65;101758.19;4951156;29;20476;-78
2022/05/09 10:53:17;;;;;;;12.93;3.30;;;;;;;19.96;45.42;101747.22;4949296;28;20039;-80
2022/05/09 10:55:52;;;;;;;7.72;2.50;;;;;;;20.12;43.96;101652.00;4935183;29;20492;-80
2022/05/09 10:58:40;;;;;;;8.40;2.85;;;;;;;19.33;47.46;101772.38;4953126;29;20504;-80
2022/05/09 11:01:20;;;;;;;9.00;3.17;;;;;;;19.80;46.63;101783.59;4946944;29;20034;-79
2022/05/09 11:03:46;;;;;;;9.38;3.58;;;;;;;19.19;48.15;101803.06;4951903;28;20038;-80
2022/05/09 11:06:24;;;;;;;12.40;2.92;;;;;;;20.46;45.76;101872.59;4950132;29;20082;-81
2022/05/09 11:09:08;;;;;;;9.52;4.20;;;;;;;20.35;43.81;101672.50;4933723;29;20570;-81
2022/05/09 11:12:12;;;;;;;6.47;3.38;;;;;;;18.86;45.55;101543.03;4934680;29;20055;-77
2022/05/09 11:15:01;;;;;;;13.15;2.65;;;;;;;20.98;45.57;101922.78;4934858;29;20047;-80
2022/05/09 11:17:53;;;;;;;7.65;3.25;;;;;;;20.00;45.26;101743.91;4935526;29;20063;-80
2022/05/09 11:20:40;;;;;;;9.55;3.80;;;;;;;21.46;42.59;101770.59;4952180;29;20036;-81
2022/05/09 11:23:37;;;;;;;10.45;3.25;;;;;;;22.29;42.75;101921.50;4929410;28;20475;-81
2022/05/09 11:26:11;;;;;;;8.93;3.38;;;;;;;19.67;44.33;101529.69;4946704;29;20024;-80
2022/05/09 11:29:01;;;;;;;6.57;3.05;;;;;;;19.48;46.22;101652.28;4951198;29;20369;-81
2022/05/09 11:31:46;;;;;;;9.80;3.30;;;;;;;20.28;45.49;101786.38;4951620;29;20031;-79
2022/05/09 11:34:36;;;;;;;6.53;2.95;;;;;;;20.45;46.36;101847.34;4950927;28;20130;-79
2022/05/09 11:37:21;;;;;;;9.25;3.08;;;;;;;21.48;44.21;101882.59;4946484;29;20050;-82
2022/05/09 11:40:09;;;;;;;5.75;2.85;;;;;;;21.13;44.29;101788.72;4951250;29;20047;-81
2022/05/09 11:46:27;;;;;;;14.00;2.90;;;;;;;22.13;40.46;101642.66;4949430;29;20415;-82
2022/05/09 11:49:09;;;;;;;7.28;4.18;;;;;;;22.63;40.91;101800.59;4942698;28;20033;-78
2022/05/09 11:51:43;;;;;;;9.38;3.55;;;;;;;22.09;42.00;101759.16;4957685;28;20431;-81